createdAt,value
2022-08-26T00:01:56.919Z,20.20
2022-08-26T00:04:25.589Z,20.20
2022-08-26T00:06:56.603Z,20.20
2022-08-26T00:09:25.228Z,20.10
2022-08-26T00:11:53.886Z,20.00
2022-08-26T00:14:21.560Z,20.10
2022-08-26T00:16:49.060Z,20.10
2022-08-26T00:19:21.571Z,20.20
2022-08-26T00:21:49.905Z,20.20
2022-08-26T00:24:19.443Z,20.10
2022-08-26T00:26:46.870Z,20.00
2022-08-26T00:29:14.872Z,20.00
2022-08-26T00:31:42.337Z,19.90
2022-08-26T00:34:11.315Z,20.00
2022-08-26T00:36:40.647Z,20.00
2022-08-26T00:39:09.030Z,20.00
2022-08-26T00:41:38.836Z,20.00
2022-08-26T00:44:06.663Z,20.00
2022-08-26T00:46:46.871Z,20.00
2022-08-26T00:49:21.869Z,19.90
2022-08-26T00:51:55.252Z,19.90
2022-08-26T00:54:27.338Z,20.00
2022-08-26T00:56:57.736Z,20.00
2022-08-26T00:59:28.912Z,19.90
2022-08-26T01:02:02.561Z,19.90
2022-08-26T01:04:36.154Z,19.80
2022-08-26T01:07:04.051Z,19.80
2022-08-26T01:09:38.297Z,19.80
2022-08-26T01:12:06.855Z,19.80
2022-08-26T01:14:37.371Z,19.80
2022-08-26T01:17:07.175Z,19.90
2022-08-26T01:19:51.310Z,19.90
2022-08-26T01:22:31.407Z,19.80
2022-08-26T01:25:00.582Z,19.90
2022-08-26T01:27:32.935Z,19.80
2022-08-26T01:30:02.742Z,19.80
2022-08-26T01:32:32.043Z,19.80
2022-08-26T01:34:59.608Z,19.90
2022-08-26T01:37:32.591Z,19.80
2022-08-26T01:39:59.554Z,19.80
2022-08-26T01:42:27.487Z,19.80
2022-08-26T01:45:04.825Z,19.80
2022-08-26T01:47:35.392Z,19.70
2022-08-26T01:50:07.699Z,19.70
2022-08-26T01:52:38.234Z,19.70
2022-08-26T01:55:06.676Z,19.70
2022-08-26T01:57:36.097Z,19.70
2022-08-26T02:00:10.839Z,19.70
2022-08-26T02:02:37.890Z,19.70
2022-08-26T02:05:07.216Z,19.70
2022-08-26T02:07:34.292Z,19.70
2022-08-26T02:10:01.192Z,19.80
2022-08-26T02:12:28.485Z,19.90
2022-08-26T02:14:59.287Z,19.90
2022-08-26T02:17:33.664Z,19.80
2022-08-26T02:20:02.754Z,19.70
2022-08-26T02:22:31.327Z,19.60
2022-08-26T02:25:11.713Z,19.70
2022-08-26T02:27:38.563Z,19.70
2022-08-26T02:30:08.347Z,19.60
2022-08-26T02:32:35.382Z,19.70
2022-08-26T02:35:02.296Z,19.70
2022-08-26T02:37:31.919Z,19.60
2022-08-26T02:40:01.907Z,19.70
2022-08-26T02:42:30.056Z,19.60
2022-08-26T02:44:56.990Z,19.60
2022-08-26T02:47:25.318Z,19.60
2022-08-26T02:49:55.834Z,19.70
2022-08-26T02:52:22.802Z,19.60
2022-08-26T02:54:50.026Z,19.60
2022-08-26T02:57:17.984Z,19.60
2022-08-26T02:59:45.152Z,19.60
2022-08-26T03:02:12.415Z,19.70
2022-08-26T03:04:41.052Z,19.70
2022-08-26T03:07:25.208Z,19.60
2022-08-26T03:09:53.055Z,19.50
2022-08-26T03:12:20.404Z,19.60
2022-08-26T03:14:47.780Z,19.60
2022-08-26T03:17:14.652Z,19.60
2022-08-26T03:19:41.548Z,19.60
2022-08-26T03:22:08.621Z,19.60
2022-08-26T03:24:35.707Z,19.60
2022-08-26T03:27:05.926Z,19.60
2022-08-26T03:29:53.806Z,19.50
2022-08-26T03:32:20.776Z,19.50
2022-08-26T03:34:47.786Z,19.50
2022-08-26T03:37:14.868Z,19.60
2022-08-26T03:39:41.867Z,19.60
2022-08-26T03:42:09.244Z,19.50
2022-08-26T03:44:40.085Z,19.50
2022-08-26T03:47:09.414Z,19.40
2022-08-26T03:49:36.542Z,19.40
2022-08-26T03:52:04.579Z,19.50
2022-08-26T03:54:33.003Z,19.50
2022-08-26T03:57:00.348Z,19.40
2022-08-26T03:59:27.819Z,19.40
2022-08-26T04:01:54.895Z,19.30
2022-08-26T04:04:22.827Z,19.30
2022-08-26T04:06:58.322Z,19.30
2022-08-26T04:09:26.137Z,19.20
2022-08-26T04:11:55.034Z,19.10
2022-08-26T04:14:25.717Z,19.10
2022-08-26T04:16:55.254Z,19.00
2022-08-26T04:19:23.809Z,19.00
2022-08-26T04:21:53.127Z,19.10
2022-08-26T04:24:23.228Z,19.10
2022-08-26T04:26:50.797Z,19.20
2022-08-26T04:29:21.353Z,19.20
2022-08-26T04:31:55.218Z,19.20
2022-08-26T04:34:28.716Z,19.20
2022-08-26T04:36:59.692Z,19.30
2022-08-26T04:39:27.758Z,19.40
2022-08-26T04:41:55.178Z,19.30
2022-08-26T04:44:24.399Z,19.30
2022-08-26T04:46:51.933Z,19.30
2022-08-26T04:49:18.969Z,19.30
2022-08-26T04:51:47.282Z,19.40
2022-08-26T04:54:14.465Z,19.40
2022-08-26T04:56:45.465Z,19.40
2022-08-26T04:59:18.251Z,19.50
2022-08-26T05:01:51.338Z,19.50
2022-08-26T05:04:19.994Z,19.50
2022-08-26T05:06:51.006Z,19.60
2022-08-26T05:09:19.343Z,19.60
2022-08-26T05:11:48.431Z,19.60
2022-08-26T05:14:20.635Z,19.70
2022-08-26T05:16:47.914Z,19.70
2022-08-26T05:19:18.938Z,19.70
2022-08-26T05:21:48.425Z,19.80
2022-08-26T05:24:16.448Z,19.80
2022-08-26T05:26:44.925Z,19.90
2022-08-26T05:29:12.795Z,20.00
2022-08-26T05:31:40.053Z,20.00
2022-08-26T05:34:08.494Z,20.00
2022-08-26T05:36:36.044Z,20.00
2022-08-26T05:39:10.576Z,20.00
2022-08-26T05:41:41.035Z,20.10
2022-08-26T05:44:11.669Z,20.10
2022-08-26T05:46:40.220Z,20.20
2022-08-26T05:49:12.482Z,20.10
2022-08-26T05:51:41.744Z,20.10
2022-08-26T05:54:10.235Z,20.20
2022-08-26T05:56:38.099Z,20.30
2022-08-26T05:59:05.866Z,20.40
2022-08-26T06:01:37.892Z,20.40
2022-08-26T06:04:04.886Z,20.40
2022-08-26T06:06:34.447Z,20.50
2022-08-26T06:09:04.541Z,20.40
2022-08-26T06:11:32.947Z,20.50
2022-08-26T06:14:03.898Z,20.60
2022-08-26T06:16:34.705Z,20.40
2022-08-26T06:19:03.425Z,20.50
2022-08-26T06:21:40.195Z,20.50
2022-08-26T06:24:28.780Z,20.60
2022-08-26T06:27:04.266Z,20.70
2022-08-26T06:29:33.981Z,20.90
2022-08-26T06:32:01.933Z,20.90
2022-08-26T06:34:30.684Z,21.00
2022-08-26T06:37:02.370Z,21.20
2022-08-26T06:39:30.812Z,21.30
2022-08-26T06:41:59.132Z,21.50
2022-08-26T06:44:26.862Z,21.80
2022-08-26T06:46:54.155Z,22.00
2022-08-26T06:49:25.608Z,22.00
2022-08-26T06:51:54.938Z,22.10
2022-08-26T06:54:22.351Z,22.30
2022-08-26T06:56:49.563Z,22.50
2022-08-26T06:59:16.454Z,22.50
2022-08-26T07:01:45.053Z,22.40
2022-08-26T07:04:15.609Z,22.60
2022-08-26T07:06:48.910Z,22.80
2022-08-26T07:09:16.817Z,22.70
2022-08-26T07:11:44.606Z,22.50
2022-08-26T07:14:12.237Z,22.10
2022-08-26T07:16:41.239Z,22.00
2022-08-26T07:19:10.835Z,22.00
2022-08-26T07:21:40.366Z,22.00
2022-08-26T07:24:08.580Z,22.30
2022-08-26T07:26:38.468Z,22.30
2022-08-26T07:29:06.862Z,22.20
2022-08-26T07:31:39.606Z,22.20
2022-08-26T07:34:10.911Z,22.20
2022-08-26T07:36:37.985Z,22.60
2022-08-26T07:39:05.962Z,23.40
2022-08-26T07:41:33.452Z,24.00
2022-08-26T07:44:01.059Z,24.70
2022-08-26T07:46:30.291Z,25.30
2022-08-26T07:48:58.332Z,25.80
2022-08-26T07:51:25.766Z,25.80
2022-08-26T07:53:54.240Z,25.90
2022-08-26T07:56:23.293Z,26.00
2022-08-26T07:58:53.963Z,26.20
2022-08-26T08:01:26.021Z,26.70
2022-08-26T08:03:54.254Z,27.10
2022-08-26T08:06:26.901Z,27.50
2022-08-26T08:08:55.249Z,27.80
2022-08-26T08:11:23.693Z,28.10
2022-08-26T08:13:56.006Z,28.40
2022-08-26T08:16:28.400Z,28.20
2022-08-26T08:18:59.559Z,28.20
2022-08-26T08:21:28.006Z,27.70
2022-08-26T08:23:57.780Z,27.60
2022-08-26T08:26:26.156Z,27.80
2022-08-26T08:28:57.687Z,28.20
2022-08-26T08:31:55.905Z,27.80
2022-08-26T08:34:18.112Z,28.20
2022-08-26T08:36:46.348Z,28.50
2022-08-26T08:39:13.802Z,28.90
2022-08-26T08:41:53.240Z,29.10
2022-08-26T08:46:59.756Z,29.80
2022-08-26T08:49:28.333Z,29.80
2022-08-26T08:52:06.947Z,29.40
2022-08-26T08:54:33.985Z,28.90
2022-08-26T08:57:17.310Z,28.80
2022-08-26T09:00:01.887Z,29.00
2022-08-26T09:02:42.289Z,29.60
2022-08-26T09:05:15.061Z,29.90
2022-08-26T09:07:50.285Z,29.90
2022-08-26T09:10:43.517Z,29.80
2022-08-26T09:13:25.293Z,29.40
2022-08-26T09:15:58.238Z,30.00
2022-08-26T09:19:03.867Z,30.20
2022-08-26T09:21:31.392Z,30.40
2022-08-26T09:23:59.632Z,30.50
2022-08-26T09:26:42.415Z,30.10
2022-08-26T09:29:26.774Z,30.00
2022-08-26T09:32:24.327Z,29.90
2022-08-26T09:34:58.595Z,29.50
2022-08-26T09:37:35.564Z,29.80
2022-08-26T09:40:37.838Z,29.50
2022-08-26T09:43:16.104Z,29.20
2022-08-26T09:46:10.679Z,28.40
2022-08-26T09:48:41.157Z,27.90
2022-08-26T09:51:23.112Z,28.20
2022-08-26T09:53:59.109Z,28.30
2022-08-26T09:56:32.135Z,28.80
2022-08-26T09:59:00.033Z,29.10
2022-08-26T10:01:30.199Z,28.90
2022-08-26T10:04:14.722Z,29.70
2022-08-26T10:07:00.538Z,30.40
2022-08-26T10:09:29.899Z,30.70
2022-08-26T10:12:00.696Z,31.10
2022-08-26T10:14:35.880Z,31.10
2022-08-26T10:17:13.558Z,31.60
2022-08-26T10:19:57.180Z,31.70
2022-08-26T10:22:42.839Z,31.40
2022-08-26T10:25:16.241Z,31.00
2022-08-26T10:28:12.015Z,31.00
2022-08-26T10:30:45.578Z,30.50
2022-08-26T10:33:15.409Z,30.60
2022-08-26T10:35:53.663Z,30.90
2022-08-26T10:38:27.488Z,31.50
2022-08-26T10:40:56.232Z,31.50
2022-08-26T10:43:38.677Z,31.90
2022-08-26T10:46:17.343Z,32.10
2022-08-26T10:48:57.198Z,32.20
2022-08-26T10:51:36.596Z,32.40
2022-08-26T10:54:09.484Z,32.40
2022-08-26T10:57:00.945Z,32.50
2022-08-26T11:00:28.310Z,31.70
2022-08-26T11:03:21.617Z,31.30
2022-08-26T11:06:29.278Z,31.30
2022-08-26T11:08:59.702Z,30.70
2022-08-26T11:11:47.988Z,30.30
2022-08-26T11:14:28.670Z,30.40
2022-08-26T11:16:57.765Z,30.20
2022-08-26T11:19:59.599Z,30.40
2022-08-26T11:22:36.259Z,30.70
2022-08-26T11:25:11.387Z,30.60
2022-08-26T11:27:51.520Z,30.10
2022-08-26T11:30:19.638Z,30.10
2022-08-26T11:32:52.311Z,30.20
2022-08-26T11:35:23.798Z,30.70
2022-08-26T11:37:56.607Z,30.50
2022-08-26T11:40:41.997Z,30.50
2022-08-26T11:43:23.131Z,30.20
2022-08-26T11:46:11.632Z,29.90
2022-08-26T11:48:41.629Z,29.40
2022-08-26T11:51:27.995Z,29.50
2022-08-26T11:54:16.357Z,29.50
2022-08-26T11:56:46.121Z,29.40
2022-08-26T11:59:19.619Z,29.40
2022-08-26T12:01:51.108Z,29.30
2022-08-26T12:04:28.664Z,29.20
2022-08-26T12:06:57.050Z,29.30
2022-08-26T12:09:27.833Z,29.30
2022-08-26T12:12:12.160Z,28.80
2022-08-26T12:14:39.778Z,28.20
2022-08-26T12:17:16.946Z,27.70
2022-08-26T12:19:44.549Z,27.80
2022-08-26T12:22:15.137Z,28.20
2022-08-26T12:24:54.758Z,28.50
2022-08-26T12:27:27.981Z,29.00
2022-08-26T12:30:06.784Z,29.10
2022-08-26T12:32:36.688Z,29.60
2022-08-26T12:37:42.180Z,29.90
2022-08-26T12:40:45.697Z,29.60
2022-08-26T12:43:34.263Z,29.60
2022-08-26T12:46:01.338Z,29.80
2022-08-26T12:48:36.386Z,29.90
2022-08-26T12:51:07.271Z,28.90
2022-08-26T12:53:41.680Z,28.70
2022-08-26T12:56:26.523Z,28.60
2022-08-26T12:59:17.698Z,28.40
2022-08-26T13:01:45.623Z,28.10
2022-08-26T13:05:00.770Z,28.00
2022-08-26T13:07:28.039Z,27.90
2022-08-26T13:09:59.116Z,27.70
2022-08-26T13:12:30.705Z,27.50
2022-08-26T13:14:59.903Z,27.50
2022-08-26T13:17:29.211Z,27.40
2022-08-26T13:20:01.298Z,27.20
2022-08-26T13:22:30.425Z,26.90
2022-08-26T13:24:57.991Z,26.70
2022-08-26T13:27:26.699Z,26.80
2022-08-26T13:29:54.428Z,26.80
2022-08-26T13:32:27.299Z,26.70
2022-08-26T13:34:56.304Z,26.60
2022-08-26T13:37:34.434Z,26.50
2022-08-26T13:40:06.866Z,26.60
2022-08-26T13:42:34.559Z,26.50
2022-08-26T13:45:01.910Z,26.40
2022-08-26T13:47:28.859Z,26.40
2022-08-26T13:49:56.422Z,26.10
2022-08-26T13:52:30.884Z,26.10
2022-08-26T13:55:00.194Z,26.10
2022-08-26T13:57:30.006Z,26.20
2022-08-26T13:59:59.090Z,26.20
2022-08-26T14:02:27.500Z,26.00
2022-08-26T14:04:55.336Z,25.90
2022-08-26T14:07:23.017Z,25.90
2022-08-26T14:09:49.902Z,25.90
2022-08-26T14:12:17.151Z,26.00
2022-08-26T14:14:44.009Z,26.10
2022-08-26T14:17:16.798Z,26.20
2022-08-26T14:19:46.565Z,26.40
2022-08-26T14:22:18.087Z,26.60
2022-08-26T14:24:45.700Z,26.70
2022-08-26T14:27:13.214Z,26.90
2022-08-26T14:29:40.994Z,27.00
2022-08-26T14:32:12.465Z,27.10
2022-08-26T14:34:41.322Z,27.10
2022-08-26T14:37:10.638Z,27.00
2022-08-26T14:39:40.613Z,27.00
2022-08-26T14:42:07.636Z,26.90
2022-08-26T14:44:34.602Z,26.70
2022-08-26T14:47:03.838Z,26.40
2022-08-26T14:49:31.782Z,26.40
2022-08-26T14:51:58.988Z,26.60
2022-08-26T14:54:26.293Z,26.70
2022-08-26T14:57:03.754Z,26.70
2022-08-26T14:59:39.778Z,26.50
2022-08-26T15:02:08.350Z,26.20
2022-08-26T15:04:35.437Z,26.30
2022-08-26T15:07:03.230Z,26.30
2022-08-26T15:09:33.001Z,26.10
2022-08-26T15:12:00.144Z,26.10
2022-08-26T15:14:32.703Z,26.30
2022-08-26T15:17:00.195Z,26.40
2022-08-26T15:19:27.457Z,26.40
2022-08-26T15:21:54.342Z,26.40
2022-08-26T15:24:23.862Z,26.20
2022-08-26T15:26:50.909Z,26.10
2022-08-26T15:29:18.292Z,25.80
2022-08-26T15:31:45.437Z,25.60
2022-08-26T15:34:16.511Z,25.50
2022-08-26T15:36:46.270Z,25.60
2022-08-26T15:39:15.425Z,25.80
2022-08-26T15:41:42.385Z,26.00
2022-08-26T15:44:10.650Z,26.00
2022-08-26T15:46:38.757Z,25.90
2022-08-26T15:49:06.089Z,25.80
2022-08-26T15:51:36.015Z,25.90
2022-08-26T15:54:13.104Z,25.80
2022-08-26T15:56:40.035Z,26.00
2022-08-26T15:59:11.377Z,26.10
2022-08-26T16:01:38.808Z,26.10
2022-08-26T16:04:06.515Z,25.90
2022-08-26T16:06:36.711Z,25.90
2022-08-26T16:09:05.593Z,25.80
2022-08-26T16:11:34.246Z,25.90
2022-08-26T16:14:01.219Z,25.90
2022-08-26T16:16:28.187Z,26.00
2022-08-26T16:18:55.388Z,26.00
2022-08-26T16:21:27.802Z,25.90
2022-08-26T16:23:56.193Z,25.90
2022-08-26T16:26:27.835Z,26.00
2022-08-26T16:28:55.013Z,26.00
2022-08-26T16:31:22.391Z,25.90
2022-08-26T16:33:49.747Z,25.90
2022-08-26T16:36:17.069Z,25.70
2022-08-26T16:38:50.154Z,25.60
2022-08-26T16:41:17.762Z,25.40
2022-08-26T16:43:45.037Z,25.20
2022-08-26T16:46:14.188Z,25.10
2022-08-26T16:48:41.299Z,24.90
2022-08-26T16:51:16.836Z,24.80
2022-08-26T16:53:44.825Z,24.70
2022-08-26T16:56:23.418Z,24.60
2022-08-26T16:58:58.109Z,24.60
2022-08-26T17:01:25.119Z,24.60
2022-08-26T17:03:52.626Z,24.50
2022-08-26T17:06:19.659Z,24.50
2022-08-26T17:08:46.849Z,24.50
2022-08-26T17:11:13.842Z,24.40
2022-08-26T17:13:41.165Z,24.30
2022-08-26T17:16:10.290Z,24.30
2022-08-26T17:18:37.609Z,24.30
2022-08-26T17:21:07.234Z,24.30
2022-08-26T17:23:34.618Z,24.20
2022-08-26T17:26:01.687Z,24.20
2022-08-26T17:28:28.680Z,24.20
2022-08-26T17:31:00.005Z,24.10
2022-08-26T17:33:27.791Z,24.10
2022-08-26T17:35:55.569Z,24.10
2022-08-26T17:38:24.322Z,23.90
2022-08-26T17:40:52.124Z,24.00
2022-08-26T17:43:19.061Z,23.90
2022-08-26T17:45:45.997Z,23.90
2022-08-26T17:48:13.167Z,24.10
2022-08-26T17:50:42.572Z,23.90
2022-08-26T17:53:12.952Z,23.80
2022-08-26T17:55:46.993Z,23.70
2022-08-26T17:58:14.973Z,23.80
2022-08-26T18:00:47.433Z,23.70
2022-08-26T18:03:14.712Z,23.50
2022-08-26T18:05:42.738Z,23.50
2022-08-26T18:08:10.093Z,23.50
2022-08-26T18:10:36.922Z,23.40
2022-08-26T18:13:03.876Z,23.40
2022-08-26T18:15:30.883Z,23.40
2022-08-26T18:17:57.811Z,23.60
2022-08-26T18:20:24.712Z,23.60
2022-08-26T18:22:51.561Z,23.60
2022-08-26T18:25:18.972Z,23.50
2022-08-26T18:27:46.165Z,23.40
2022-08-26T18:30:20.643Z,23.20
2022-08-26T18:32:51.788Z,23.10
2022-08-26T18:35:21.351Z,23.10
2022-08-26T18:37:48.498Z,23.10
2022-08-26T18:40:16.323Z,23.00
2022-08-26T18:42:47.027Z,23.10
2022-08-26T18:45:20.999Z,23.10
2022-08-26T18:47:47.900Z,23.00
2022-08-26T18:50:15.801Z,23.00
2022-08-26T18:52:43.345Z,23.00
2022-08-26T18:55:10.694Z,22.90
2022-08-26T18:57:37.622Z,22.90
2022-08-26T19:00:07.442Z,22.90
2022-08-26T19:02:34.713Z,22.80
2022-08-26T19:05:03.027Z,22.70
2022-08-26T19:07:29.925Z,22.80
2022-08-26T19:09:56.920Z,22.90
2022-08-26T19:12:26.848Z,22.80
2022-08-26T19:14:54.046Z,22.70
2022-08-26T19:17:22.717Z,22.70
2022-08-26T19:19:49.848Z,22.60
2022-08-26T19:22:16.724Z,22.60
2022-08-26T19:24:43.626Z,22.60
2022-08-26T19:27:14.609Z,22.70
2022-08-26T19:29:42.141Z,22.60
2022-08-26T19:32:09.006Z,22.60
2022-08-26T19:34:36.420Z,22.50
2022-08-26T19:37:03.358Z,22.50
2022-08-26T19:39:30.402Z,22.40
2022-08-26T19:41:57.323Z,22.40
2022-08-26T19:44:42.704Z,22.40
2022-08-26T19:47:11.237Z,22.40
2022-08-26T19:49:38.634Z,22.40
2022-08-26T19:52:06.099Z,22.50
2022-08-26T19:54:33.821Z,22.40
2022-08-26T19:57:00.704Z,22.30
2022-08-26T19:59:28.048Z,22.20
2022-08-26T20:02:01.109Z,22.10
2022-08-26T20:04:32.765Z,22.10
2022-08-26T20:07:01.367Z,22.10
2022-08-26T20:09:33.987Z,22.00
2022-08-26T20:12:01.739Z,22.00
2022-08-26T20:14:30.091Z,22.00
2022-08-26T20:16:57.361Z,22.10
2022-08-26T20:19:43.351Z,22.00
2022-08-26T20:22:11.514Z,21.90
2022-08-26T20:24:38.840Z,21.90
2022-08-26T20:27:08.805Z,21.80
2022-08-26T20:29:36.849Z,21.80
2022-08-26T20:32:06.161Z,21.80
2022-08-26T20:34:34.425Z,21.80
2022-08-26T20:37:02.066Z,21.90
2022-08-26T20:39:31.800Z,21.80
2022-08-26T20:41:59.127Z,21.70
2022-08-26T20:44:26.242Z,21.70
2022-08-26T20:46:53.663Z,21.60
2022-08-26T20:49:20.749Z,21.60
2022-08-26T20:51:51.505Z,21.50
2022-08-26T20:54:28.157Z,21.50
2022-08-26T20:56:56.761Z,21.50
2022-08-26T20:59:24.458Z,21.40
2022-08-26T21:01:51.854Z,21.40
2022-08-26T21:04:22.873Z,21.40
2022-08-26T21:06:52.656Z,21.40
2022-08-26T21:09:22.440Z,21.40
2022-08-26T21:11:50.471Z,21.40
2022-08-26T21:14:19.057Z,21.40
2022-08-26T21:16:46.781Z,21.40
2022-08-26T21:19:17.609Z,21.40
2022-08-26T21:21:45.499Z,21.40
2022-08-26T21:24:13.125Z,21.50
2022-08-26T21:26:40.162Z,21.60
2022-08-26T21:29:09.780Z,21.80
2022-08-26T21:31:42.276Z,21.80
2022-08-26T21:34:12.009Z,21.80
2022-08-26T21:36:38.936Z,21.70
2022-08-26T21:39:10.710Z,21.70
2022-08-26T21:41:42.346Z,21.80
2022-08-26T21:44:10.329Z,21.80
2022-08-26T21:46:37.494Z,21.70
2022-08-26T21:49:07.483Z,21.80
2022-08-26T21:51:37.219Z,21.80
2022-08-26T21:54:10.485Z,21.70
2022-08-26T21:56:41.004Z,21.70
2022-08-26T21:59:08.801Z,21.70
2022-08-26T22:01:36.527Z,21.60
2022-08-26T22:04:07.062Z,21.60
2022-08-26T22:06:39.291Z,21.60
2022-08-26T22:09:06.145Z,21.60
2022-08-26T22:11:33.190Z,21.60
2022-08-26T22:14:00.091Z,21.60
2022-08-26T22:16:28.791Z,21.60
2022-08-26T22:18:55.780Z,21.60
2022-08-26T22:21:25.155Z,21.50
2022-08-26T22:23:56.141Z,21.60
2022-08-26T22:26:27.559Z,21.50
2022-08-26T22:28:59.182Z,21.50
2022-08-26T22:31:37.238Z,21.50
2022-08-26T22:34:15.151Z,21.50
2022-08-26T22:36:45.841Z,21.60
2022-08-26T22:39:15.191Z,21.60
2022-08-26T22:41:43.775Z,21.50
2022-08-26T22:44:12.288Z,21.50
2022-08-26T22:46:40.817Z,21.60
2022-08-26T22:49:09.745Z,21.60
2022-08-26T22:51:36.723Z,21.50
2022-08-26T22:54:03.877Z,21.60
2022-08-26T22:56:30.826Z,21.60
2022-08-26T22:58:57.871Z,21.60
2022-08-26T23:01:24.805Z,21.50
2022-08-26T23:03:51.824Z,21.50
2022-08-26T23:06:18.874Z,21.50
2022-08-26T23:08:47.030Z,21.50
2022-08-26T23:11:15.001Z,21.50
2022-08-26T23:13:42.570Z,21.50
2022-08-26T23:16:11.886Z,21.50
2022-08-26T23:18:40.724Z,21.50
2022-08-26T23:21:08.681Z,21.50
2022-08-26T23:23:36.710Z,21.50
2022-08-26T23:26:06.346Z,21.50
2022-08-26T23:28:34.603Z,21.50
2022-08-26T23:31:01.813Z,21.50
2022-08-26T23:33:48.863Z,21.50
2022-08-26T23:36:17.843Z,21.50
2022-08-26T23:38:45.471Z,21.50
2022-08-26T23:41:19.778Z,21.60
2022-08-26T23:43:46.700Z,21.60
2022-08-26T23:46:13.598Z,21.50
2022-08-26T23:48:40.722Z,21.50
2022-08-26T23:51:26.326Z,21.40
2022-08-26T23:53:53.332Z,21.30
2022-08-26T23:56:20.279Z,21.30
2022-08-26T23:58:47.698Z,21.30
